AIRPORT MAP

 RUNWAY INFORMATION

Runway 10 Runway length 9842 ft Runway width 148 ft
Runway elevation 142 ft Runway displaced threshold 0 ft Runway heading 100
Runway 28 Runway length 9842 ft Runway width 148 ft
Runway elevation 44 ft Runway displaced threshold 0 ft Runway heading 280

 AIRPORT FREQUENCIES

Type APP Name APP Frequency 118.8 MHZ
Type ATIS Name ATIS Frequency 113.8 MHZ
Type GND Name GND Frequency 121.7 MHZ
Type TWR Name TWR Frequency 118.15 MHZ

 AIRPORT NEAR NAVIGATION AIDS

Type VOR-DME Name Alicante Frequency 113800 KHZ
Type VOR-DME Name Alicante Frequency 114650 KHZ

 METAR AND TAF INFORMATION

METAR FOR LEAL
ADDS - METARS form results

(0308 UTC 26 January 2020)
Data provider http://aviationweather.gov/metar/data/
 
METAR text: LEAL 260300Z 24005KT 200V270 CAVOK 08/07 Q1019 NOSIG
Conditions at: LEAL (ALICANTE/EL ALTE, ES) observed 0300 UTC 26 January 2020
Temperature: 8.0°C (46°F)
Dewpoint: 7.0°C (45°F) [RH = 93%]
Pressure (altimeter): 30.09 inches Hg (1019.0 mb)
Winds: from the WSW (240 degrees) at 6 MPH (5 knots; 2.6 m/s)
Visibility: 6 or more miles (10+ km)
Ceiling: ceiling and visibility are OK
Clouds: unknown
Weather: no significant weather observed at this time

METAR text: LEAL 260230Z 27005KT CAVOK 09/07 Q1019 NOSIG
Conditions at: LEAL (ALICANTE/EL ALTE, ES) observed 0230 UTC 26 January 2020
Temperature: 9.0°C (48°F)
Dewpoint: 7.0°C (45°F) [RH = 87%]
Pressure (altimeter): 30.09 inches Hg (1019.0 mb)
Winds: from the W (270 degrees) at 6 MPH (5 knots; 2.6 m/s)
Visibility: 6 or more miles (10+ km)
Ceiling: ceiling and visibility are OK
Clouds: unknown
Weather: no significant weather observed at this time

Forecast for: LEAL (ALICANTE/EL ALTE, ES)
Text: TAF LEAL 252300Z 2600/2624 29006KT 9999 SCT020 TX18/2612Z TN08/2606Z
Forecast period: 0000 to 0900 UTC 26 January 2020
Forecast type: FROM: standard forecast or significant change
Winds: from the WNW (290 degrees) at 7 MPH (6 knots; 3.1 m/s)
Visibility: 6 or more miles 10+ km)
Ceiling: at least 12,000 feet AGL
Clouds: scattered clouds at 2000 feet AGL
Weather: no significant weather forecast for this period
Text: PROB30
Forecast period: 0000 to 0300 UTC 26 January 2020
Forecast type: TEMPORARY: The following changes expected for less than half the time period
Visibility: 2.49 miles (4.01 km)
Ceiling: at least 12,000 feet AGL
Clouds: few clouds at 1500 feet AGL
Weather: SHRA  (rain showers)
Text: TEMPO 2600/2603 4000 SHRA FEW015CB
Forecast period: 0900 UTC 26 January 2020 to 0000 UTC 27 January 2020
Forecast type: BECOMING: Conditions expected to become as follows by 1100 UTC 26 January 2020
Winds: from the NW (310 degrees) at 15 MPH (13 knots; 6.7 m/s)
Visibility: 6 or more miles 10+ km)
Ceiling: at least 12,000 feet AGL
Clouds: scattered clouds at 2000 feet AGL
Weather: no significant weather forecast for this period